Time;durP1;ratioP1;P1;durP2;ratioP2;P2;SDS_P1;SDS_P2;PMS_P1;PMS_P2;Temp;Humidity;BMP_temperature;BMP_pressure;BME280_temperature;BME280_humidity;BME280_pressure;Samples;Min_cycle;Max_cycle;Signal;HPM_P1;HPM_P2
2021/06/21 00:01:56;;;;;;;8.90;5.70;;;;;;;;;;5035985;28;20049;-65
2021/06/21 00:04:22;;;;;;;10.80;6.85;;;;;;;;;;5035947;28;20339;-68
2021/06/21 00:06:48;;;;;;;6.85;6.07;;;;;;;;;;5051207;28;20091;-67
2021/06/21 00:09:15;;;;;;;13.27;6.57;;;;;;;;;;5051215;28;20040;-66
2021/06/21 00:11:41;;;;;;;9.75;6.45;;;;;;;;;;5035934;28;20537;-64
2021/06/21 00:14:07;;;;;;;10.15;6.38;;;;;;;;;;5036093;28;20025;-65
2021/06/21 00:16:34;;;;;;;9.65;6.70;;;;;;;;;;5035840;28;20108;-64
2021/06/21 00:19:00;;;;;;;11.50;5.95;;;;;;;;;;5035649;28;20026;-65
2021/06/21 00:21:26;;;;;;;10.32;5.93;;;;;;;;;;5035596;28;20365;-65
2021/06/21 00:23:53;;;;;;;8.68;6.03;;;;;;;;;;5051058;28;20075;-67
2021/06/21 00:26:19;;;;;;;11.27;6.10;;;;;;;;;;5050927;28;20077;-64
2021/06/21 00:28:45;;;;;;;7.68;6.05;;;;;;;;;;5035283;28;20100;-65
2021/06/21 00:31:11;;;;;;;8.38;6.00;;;;;;;;;;5050876;28;20037;-65
2021/06/21 00:33:37;;;;;;;7.43;6.53;;;;;;;;;;5050692;28;20022;-66
2021/06/21 00:36:04;;;;;;;8.85;5.80;;;;;;;;;;5035600;28;20109;-64
2021/06/21 00:38:30;;;;;;;15.85;6.53;;;;;;;;;;5035094;28;20385;-64
2021/06/21 00:40:57;;;;;;;7.68;5.88;;;;;;;;;;5035041;28;20100;-65
2021/06/21 00:43:23;;;;;;;9.43;5.80;;;;;;;;;;5035313;28;20490;-65
2021/06/21 00:45:49;;;;;;;8.48;5.88;;;;;;;;;;5035206;28;20045;-65
2021/06/21 00:48:15;;;;;;;10.30;6.07;;;;;;;;;;5035228;28;20079;-66
2021/06/21 00:50:41;;;;;;;7.43;6.28;;;;;;;;;;5035171;28;20518;-65
2021/06/21 00:53:08;;;;;;;9.93;6.65;;;;;;;;;;5035021;28;20097;-64
2021/06/21 00:55:34;;;;;;;11.02;6.07;;;;;;;;;;5050453;28;20390;-64
2021/06/21 00:58:00;;;;;;;13.60;6.25;;;;;;;;;;5035321;28;20110;-67
2021/06/21 01:00:28;;;;;;;8.27;5.50;;;;;;;;;;5024545;28;20111;-65
2021/06/21 01:02:55;;;;;;;7.22;5.78;;;;;;;;;;5015191;28;20156;-65
2021/06/21 01:05:23;;;;;;;8.65;5.72;;;;;;;;;;5013721;28;20120;-65
2021/06/21 01:07:49;;;;;;;14.98;5.60;;;;;;;;;;5014980;28;20468;-65
2021/06/21 01:10:17;;;;;;;8.05;5.15;;;;;;;;;;5014114;28;20030;-65
2021/06/21 01:12:46;;;;;;;10.73;5.07;;;;;;;;;;5013398;28;20112;-65
2021/06/21 01:15:14;;;;;;;6.90;5.47;;;;;;;;;;5014836;28;20021;-65
2021/06/21 01:17:46;;;;;;;9.57;5.32;;;;;;;;;;5014875;28;20032;-65
2021/06/21 01:20:25;;;;;;;10.35;5.35;;;;;;;;;;5013507;28;20022;-65
2021/06/21 01:23:09;;;;;;;12.73;5.70;;;;;;;;;;5014704;28;20026;-67
2021/06/21 01:25:38;;;;;;;9.32;5.60;;;;;;;;;;5014673;28;20036;-65
2021/06/21 01:28:11;;;;;;;8.80;6.13;;;;;;;;;;5014685;28;20022;-65
2021/06/21 01:30:52;;;;;;;7.50;5.40;;;;;;;;;;5014606;28;20105;-64
2021/06/21 01:33:19;;;;;;;9.68;4.88;;;;;;;;;;5014591;28;20025;-65
2021/06/21 01:35:58;;;;;;;7.60;5.47;;;;;;;;;;5013346;28;20029;-65
2021/06/21 01:38:26;;;;;;;9.90;5.15;;;;;;;;;;5014621;28;20057;-64
2021/06/21 01:40:53;;;;;;;9.60;5.30;;;;;;;;;;5014160;28;20463;-65
2021/06/21 01:43:22;;;;;;;8.80;4.97;;;;;;;;;;5014274;28;20026;-66
2021/06/21 01:45:48;;;;;;;8.90;5.78;;;;;;;;;;5014347;28;20050;-66
2021/06/21 01:48:15;;;;;;;6.82;5.45;;;;;;;;;;5014334;28;20058;-65
2021/06/21 01:50:41;;;;;;;10.15;5.60;;;;;;;;;;5014168;28;20026;-64
2021/06/21 01:53:13;;;;;;;8.93;6.10;;;;;;;;;;5014214;28;20370;-65
2021/06/21 01:55:43;;;;;;;17.60;6.50;;;;;;;;;;5014232;28;20117;-66
2021/06/21 01:58:11;;;;;;;11.38;6.90;;;;;;;;;;5013985;28;20046;-65
2021/06/21 02:00:38;;;;;;;12.77;7.28;;;;;;;;;;5013758;28;20050;-64
2021/06/21 02:03:06;;;;;;;9.23;6.00;;;;;;;;;;5013820;28;20018;-67
2021/06/21 02:05:34;;;;;;;13.73;6.68;;;;;;;;;;5014249;28;20113;-64
2021/06/21 02:08:00;;;;;;;9.18;6.32;;;;;;;;;;5013953;28;20030;-65
2021/06/21 02:10:27;;;;;;;10.43;7.00;;;;;;;;;;5012672;28;20117;-64
2021/06/21 02:12:53;;;;;;;9.63;6.68;;;;;;;;;;5013927;28;20101;-66
2021/06/21 02:15:21;;;;;;;11.20;6.82;;;;;;;;;;5013894;28;20025;-65
2021/06/21 02:17:48;;;;;;;8.07;6.32;;;;;;;;;;5014056;28;20432;-65
2021/06/21 02:20:15;;;;;;;7.10;6.35;;;;;;;;;;5014032;28;20037;-65
2021/06/21 02:22:41;;;;;;;10.35;6.60;;;;;;;;;;5012279;28;20026;-65
2021/06/21 02:25:09;;;;;;;13.90;6.90;;;;;;;;;;5012358;28;20022;-64
2021/06/21 02:27:39;;;;;;;10.18;7.40;;;;;;;;;;5013693;28;20018;-65
2021/06/21 02:30:09;;;;;;;12.13;7.65;;;;;;;;;;5012379;28;20022;-64
2021/06/21 02:32:36;;;;;;;11.15;8.00;;;;;;;;;;5013885;28;20061;-65
2021/06/21 02:35:05;;;;;;;15.63;7.57;;;;;;;;;;5013688;28;20029;-64
2021/06/21 02:37:31;;;;;;;10.32;7.85;;;;;;;;;;5013473;28;20057;-64
2021/06/21 02:39:57;;;;;;;11.50;7.80;;;;;;;;;;5013525;28;20055;-64
2021/06/21 02:42:23;;;;;;;11.90;7.70;;;;;;;;;;5012121;28;20030;-65
2021/06/21 02:44:50;;;;;;;13.65;7.55;;;;;;;;;;5011908;28;20034;-64
2021/06/21 02:47:16;;;;;;;12.70;7.95;;;;;;;;;;5013125;28;20030;-65
2021/06/21 02:49:43;;;;;;;14.77;8.05;;;;;;;;;;5013428;28;20083;-65
2021/06/21 02:52:18;;;;;;;13.13;8.40;;;;;;;;;;5013394;28;20109;-64
2021/06/21 02:54:50;;;;;;;14.77;8.20;;;;;;;;;;5013301;28;20429;-66
2021/06/21 02:57:30;;;;;;;15.38;7.93;;;;;;;;;;5013287;28;20105;-66
2021/06/21 02:59:57;;;;;;;17.42;7.65;;;;;;;;;;5013008;28;20014;-66
2021/06/21 03:02:24;;;;;;;19.23;8.75;;;;;;;;;;5013605;28;20113;-65
2021/06/21 03:04:52;;;;;;;9.90;7.95;;;;;;;;;;5013250;28;20052;-64
2021/06/21 03:07:20;;;;;;;11.88;7.90;;;;;;;;;;5011853;28;20038;-65
2021/06/21 03:09:48;;;;;;;13.93;8.27;;;;;;;;;;5012920;28;20410;-64
2021/06/21 03:12:26;;;;;;;13.27;7.75;;;;;;;;;;5013175;28;20537;-64
2021/06/21 03:14:52;;;;;;;15.73;7.78;;;;;;;;;;5013228;28;20101;-65
2021/06/21 03:17:20;;;;;;;10.60;8.43;;;;;;;;;;5013115;28;20018;-65
2021/06/21 03:19:46;;;;;;;8.68;7.68;;;;;;;;;;5013162;28;20038;-65
2021/06/21 03:22:13;;;;;;;15.07;7.80;;;;;;;;;;5011802;28;20113;-64
2021/06/21 03:24:39;;;;;;;12.52;8.18;;;;;;;;;;5011800;28;20449;-63
2021/06/21 03:27:07;;;;;;;18.60;8.43;;;;;;;;;;5012713;28;20482;-64
2021/06/21 03:29:35;;;;;;;20.10;9.35;;;;;;;;;;5011730;28;20466;-64
2021/06/21 03:32:11;;;;;;;17.48;8.63;;;;;;;;;;5011710;28;20065;-63
2021/06/21 03:34:37;;;;;;;14.35;8.15;;;;;;;;;;5015094;28;20021;-63
2021/06/21 03:37:04;;;;;;;13.80;7.95;;;;;;;;;;5015536;28;20113;-65
2021/06/21 03:39:30;;;;;;;44.03;10.52;;;;;;;;;;5015150;28;20107;-65
2021/06/21 03:41:56;;;;;;;38.83;10.43;;;;;;;;;;5015605;28;20053;-65
2021/06/21 03:44:23;;;;;;;20.65;9.27;;;;;;;;;;5016818;28;20037;-64
2021/06/21 03:46:49;;;;;;;20.42;9.10;;;;;;;;;;5015263;28;20026;-65
2021/06/21 03:49:15;;;;;;;20.40;8.52;;;;;;;;;;5016546;28;20159;-64
2021/06/21 03:51:41;;;;;;;11.13;8.05;;;;;;;;;;5016457;28;20057;-64
2021/06/21 03:54:07;;;;;;;19.95;8.35;;;;;;;;;;5015162;28;20023;-63
2021/06/21 03:56:34;;;;;;;17.73;7.95;;;;;;;;;;5016388;28;20034;-64
2021/06/21 03:59:00;;;;;;;14.32;8.40;;;;;;;;;;5014958;28;20463;-64
2021/06/21 04:01:26;;;;;;;19.38;8.32;;;;;;;;;;5015955;28;20085;-64
2021/06/21 04:03:58;;;;;;;16.13;8.07;;;;;;;;;;5014983;28;20057;-64
2021/06/21 04:06:24;;;;;;;11.55;8.93;;;;;;;;;;5016146;28;20041;-64
2021/06/21 04:08:50;;;;;;;13.05;8.65;;;;;;;;;;5015133;28;20492;-64
2021/06/21 04:11:17;;;;;;;13.82;9.38;;;;;;;;;;5016146;28;20105;-65
2021/06/21 04:13:43;;;;;;;22.45;10.20;;;;;;;;;;5014620;28;20050;-65
2021/06/21 04:16:09;;;;;;;18.35;9.20;;;;;;;;;;5015862;28;20113;-65
2021/06/21 04:18:36;;;;;;;20.17;9.93;;;;;;;;;;5015983;28;20029;-65
2021/06/21 04:21:02;;;;;;;15.07;9.52;;;;;;;;;;5015951;28;20022;-66
2021/06/21 04:23:28;;;;;;;21.52;9.45;;;;;;;;;;5014516;28;20080;-64
2021/06/21 04:25:54;;;;;;;15.10;9.50;;;;;;;;;;5015709;28;20030;-64
2021/06/21 04:28:21;;;;;;;14.63;10.10;;;;;;;;;;5015776;28;20121;-64
2021/06/21 04:30:48;;;;;;;18.90;10.20;;;;;;;;;;5015499;28;20368;-64
2021/06/21 04:33:14;;;;;;;20.52;10.75;;;;;;;;;;5015700;28;20022;-65
2021/06/21 04:35:40;;;;;;;20.00;11.55;;;;;;;;;;5015964;28;20021;-65
2021/06/21 04:38:07;;;;;;;17.95;11.02;;;;;;;;;;5015513;28;20022;-65
2021/06/21 04:40:35;;;;;;;21.40;11.63;;;;;;;;;;5035105;28;20048;-64
2021/06/21 04:43:01;;;;;;;14.57;10.48;;;;;;;;;;5035377;28;20017;-65
2021/06/21 04:45:28;;;;;;;16.77;10.48;;;;;;;;;;5033946;28;20025;-64
2021/06/21 04:47:54;;;;;;;19.40;10.85;;;;;;;;;;5033947;28;20088;-65
2021/06/21 04:50:21;;;;;;;23.85;11.98;;;;;;;;;;5035221;28;20021;-64
2021/06/21 04:52:50;;;;;;;21.67;10.85;;;;;;;;;;5035131;28;20079;-65
2021/06/21 04:55:18;;;;;;;15.45;11.52;;;;;;;;;;5035111;28;20025;-65
2021/06/21 04:57:44;;;;;;;15.23;11.32;;;;;;;;;;5035010;28;20155;-65
2021/06/21 05:00:18;;;;;;;21.48;11.73;;;;;;;;;;5034685;28;20039;-64
2021/06/21 05:02:44;;;;;;;16.58;12.15;;;;;;;;;;5035048;28;20029;-65
2021/06/21 05:05:11;;;;;;;20.33;11.93;;;;;;;;;;5034764;28;20060;-64
2021/06/21 05:07:38;;;;;;;25.90;12.32;;;;;;;;;;5033528;28;20102;-66
2021/06/21 05:10:06;;;;;;;24.45;12.63;;;;;;;;;;5034478;28;20470;-67
2021/06/21 05:12:32;;;;;;;21.23;11.20;;;;;;;;;;5034996;28;20025;-66
2021/06/21 05:14:58;;;;;;;21.95;11.48;;;;;;;;;;5034456;28;20407;-66
2021/06/21 05:17:24;;;;;;;18.70;11.55;;;;;;;;;;5034724;28;20041;-65
2021/06/21 05:19:50;;;;;;;19.25;10.57;;;;;;;;;;5034206;28;20138;-65
2021/06/21 05:22:17;;;;;;;17.00;10.20;;;;;;;;;;5034050;28;20079;-63
2021/06/21 05:24:43;;;;;;;19.92;10.77;;;;;;;;;;5034500;28;20344;-64
2021/06/21 05:27:10;;;;;;;13.65;10.50;;;;;;;;;;5034314;28;20109;-65
2021/06/21 05:29:36;;;;;;;14.57;10.50;;;;;;;;;;5034376;28;20029;-64
2021/06/21 05:32:03;;;;;;;20.15;9.75;;;;;;;;;;5034102;28;20152;-64
2021/06/21 05:34:30;;;;;;;12.55;8.70;;;;;;;;;;5034429;28;20021;-65
2021/06/21 05:36:56;;;;;;;15.80;9.82;;;;;;;;;;5033973;28;20033;-64
2021/06/21 05:39:22;;;;;;;17.35;9.32;;;;;;;;;;5049529;28;20028;-64
2021/06/21 05:41:49;;;;;;;15.23;8.93;;;;;;;;;;5033955;28;20124;-65
2021/06/21 05:44:15;;;;;;;15.35;7.68;;;;;;;;;;5049204;28;20026;-65
2021/06/21 05:46:41;;;;;;;9.80;7.43;;;;;;;;;;5049323;28;20014;-64
2021/06/21 05:49:07;;;;;;;22.80;9.18;;;;;;;;;;5033887;28;20026;-65
2021/06/21 05:51:34;;;;;;;10.52;7.57;;;;;;;;;;5033832;28;20390;-65
2021/06/21 05:54:00;;;;;;;16.80;7.63;;;;;;;;;;5049534;28;20021;-64
2021/06/21 05:56:26;;;;;;;11.38;8.48;;;;;;;;;;5033822;28;20029;-71
2021/06/21 05:58:52;;;;;;;13.05;8.80;;;;;;;;;;5034382;28;20378;-65
2021/06/21 06:01:18;;;;;;;12.52;9.10;;;;;;;;;;5033468;28;20132;-64
2021/06/21 06:03:44;;;;;;;11.88;7.65;;;;;;;;;;5033798;28;20077;-64
2021/06/21 06:06:11;;;;;;;9.77;8.05;;;;;;;;;;5034127;28;20512;-66
2021/06/21 06:08:37;;;;;;;10.18;8.05;;;;;;;;;;5034244;28;20088;-64
2021/06/21 06:11:03;;;;;;;16.92;8.48;;;;;;;;;;5034013;28;20028;-65
2021/06/21 06:13:29;;;;;;;11.70;7.93;;;;;;;;;;5049116;28;20105;-67
2021/06/21 06:15:55;;;;;;;11.02;7.80;;;;;;;;;;5048854;28;20030;-67
2021/06/21 06:18:22;;;;;;;10.35;7.28;;;;;;;;;;5033421;28;20096;-68
2021/06/21 06:20:48;;;;;;;10.57;6.78;;;;;;;;;;5033488;28;20469;-64
2021/06/21 06:23:15;;;;;;;9.77;7.30;;;;;;;;;;5033512;28;20025;-68
2021/06/21 06:25:41;;;;;;;9.85;6.43;;;;;;;;;;5048646;28;20115;-66
2021/06/21 06:28:07;;;;;;;11.18;6.65;;;;;;;;;;5048720;28;20060;-64
2021/06/21 06:30:35;;;;;;;11.68;6.82;;;;;;;;;;5033394;28;20021;-67
2021/06/21 06:33:01;;;;;;;9.95;6.15;;;;;;;;;;5033384;28;20048;-67
2021/06/21 06:35:28;;;;;;;8.43;7.00;;;;;;;;;;5032877;28;20095;-66
2021/06/21 06:37:54;;;;;;;9.68;6.55;;;;;;;;;;5033298;28;20544;-65
2021/06/21 06:40:20;;;;;;;10.60;7.05;;;;;;;;;;5033215;28;20108;-66
2021/06/21 06:42:47;;;;;;;10.85;6.55;;;;;;;;;;5048438;28;20025;-66
2021/06/21 06:45:14;;;;;;;14.93;6.30;;;;;;;;;;5033304;28;20109;-65
2021/06/21 06:47:43;;;;;;;13.07;6.35;;;;;;;;;;5048373;28;20448;-65
2021/06/21 06:50:09;;;;;;;13.05;5.80;;;;;;;;;;5033122;28;20036;-65
2021/06/21 06:52:36;;;;;;;10.07;6.07;;;;;;;;;;5031141;28;20359;-64
2021/06/21 06:57:32;;;;;;;9.32;5.05;;;;;;;;;;5032991;28;20037;-66
2021/06/21 06:59:58;;;;;;;9.82;5.20;;;;;;;;;;5048141;28;20021;-66
2021/06/21 07:02:24;;;;;;;8.82;5.72;;;;;;;;;;5033007;28;20057;-66
2021/06/21 07:04:51;;;;;;;12.07;5.60;;;;;;;;;;5032940;28;20049;-65
2021/06/21 07:07:20;;;;;;;8.32;5.55;;;;;;;;;;5032834;28;20033;-66
2021/06/21 07:09:46;;;;;;;11.45;6.43;;;;;;;;;;5036808;28;20034;-66
2021/06/21 07:12:12;;;;;;;12.15;6.57;;;;;;;;;;5036984;28;20075;-66
2021/06/21 07:14:38;;;;;;;8.18;5.82;;;;;;;;;;5036677;28;20104;-66
2021/06/21 07:17:05;;;;;;;8.93;6.50;;;;;;;;;;5036845;28;20021;-67
2021/06/21 07:19:31;;;;;;;13.55;6.15;;;;;;;;;;5036866;28;20030;-68
2021/06/21 07:21:57;;;;;;;8.48;5.72;;;;;;;;;;5051562;28;20037;-67
2021/06/21 07:24:24;;;;;;;11.23;6.10;;;;;;;;;;5016855;28;20022;-67
2021/06/21 07:26:51;;;;;;;21.85;6.90;;;;;;;;;;5032066;28;20122;-68
2021/06/21 07:29:17;;;;;;;12.75;6.63;;;;;;;;;;5016925;28;20038;-66
2021/06/21 07:31:43;;;;;;;12.30;6.47;;;;;;;;;;5031982;28;20458;-70
2021/06/21 07:34:10;;;;;;;12.82;6.40;;;;;;;;;;5032337;28;20370;-68
2021/06/21 07:36:36;;;;;;;11.07;6.43;;;;;;;;;;5016769;28;20037;-68
2021/06/21 07:39:04;;;;;;;17.65;7.35;;;;;;;;;;5016773;28;20030;-70
2021/06/21 07:41:30;;;;;;;12.48;6.95;;;;;;;;;;5031870;28;20546;-70
2021/06/21 07:43:56;;;;;;;9.15;6.38;;;;;;;;;;5016618;28;20034;-69
2021/06/21 07:46:22;;;;;;;9.93;7.25;;;;;;;;;;5031632;28;20514;-68
2021/06/21 07:48:49;;;;;;;14.75;7.07;;;;;;;;;;5031782;28;20038;-70
2021/06/21 07:51:15;;;;;;;13.43;7.30;;;;;;;;;;5016494;28;20026;-68
2021/06/21 07:53:42;;;;;;;10.07;7.57;;;;;;;;;;5031393;28;20056;-68
2021/06/21 07:56:09;;;;;;;11.93;6.90;;;;;;;;;;5031483;28;20494;-68
2021/06/21 07:58:39;;;;;;;14.25;6.60;;;;;;;;;;5016172;28;20361;-69
2021/06/21 08:01:05;;;;;;;14.90;6.22;;;;;;;;;;5015643;28;20053;-70
2021/06/21 08:03:32;;;;;;;15.82;6.50;;;;;;;;;;5038108;28;20018;-71
2021/06/21 08:06:02;;;;;;;12.27;5.55;;;;;;;;;;5035656;28;20029;-69
2021/06/21 08:08:28;;;;;;;7.57;5.80;;;;;;;;;;5035938;28;20116;-71
2021/06/21 08:10:55;;;;;;;8.30;5.25;;;;;;;;;;5035941;28;20029;-67
2021/06/21 08:13:21;;;;;;;10.90;5.97;;;;;;;;;;5051136;28;20021;-69
2021/06/21 08:15:48;;;;;;;10.20;5.65;;;;;;;;;;5036049;28;20076;-70
2021/06/21 08:18:14;;;;;;;12.48;5.80;;;;;;;;;;5051074;28;20026;-68
2021/06/21 08:20:43;;;;;;;9.07;5.65;;;;;;;;;;5035455;28;20025;-66
2021/06/21 08:23:13;;;;;;;5.25;4.60;;;;;;;;;;5050914;28;20052;-67
2021/06/21 08:25:40;;;;;;;12.27;4.72;;;;;;;;;;5050742;28;20116;-66
2021/06/21 08:28:06;;;;;;;5.80;3.97;;;;;;;;;;5035498;28;20033;-69
2021/06/21 08:30:32;;;;;;;5.28;3.67;;;;;;;;;;5017610;28;20025;-69
2021/06/21 08:32:58;;;;;;;4.10;3.58;;;;;;;;;;5038547;28;20026;-67
2021/06/21 08:35:25;;;;;;;6.57;3.83;;;;;;;;;;5030729;28;20113;-67
2021/06/21 08:37:52;;;;;;;5.32;3.47;;;;;;;;;;5015444;28;20057;-68
2021/06/21 08:40:21;;;;;;;4.72;3.55;;;;;;;;;;5015503;28;20081;-69
2021/06/21 08:42:47;;;;;;;4.95;3.58;;;;;;;;;;5015479;28;20092;-67
2021/06/21 08:45:14;;;;;;;3.80;3.45;;;;;;;;;;5013995;28;20037;-66
2021/06/21 08:47:42;;;;;;;3.78;3.45;;;;;;;;;;5015106;28;20034;-66
2021/06/21 08:50:09;;;;;;;6.82;2.97;;;;;;;;;;5015303;28;20034;-66
2021/06/21 08:52:36;;;;;;;10.10;3.67;;;;;;;;;;5030537;28;20375;-68
2021/06/21 08:55:03;;;;;;;4.43;2.83;;;;;;;;;;5043754;28;20018;-66
2021/06/21 08:57:31;;;;;;;6.00;3.20;;;;;;;;;;5033857;28;20028;-65
2021/06/21 08:59:57;;;;;;;5.10;3.45;;;;;;;;;;5034698;28;20025;-66
2021/06/21 09:02:23;;;;;;;8.73;4.25;;;;;;;;;;5034957;28;20095;-65
2021/06/21 09:04:49;;;;;;;6.57;3.22;;;;;;;;;;5034900;28;20100;-68
2021/06/21 09:07:22;;;;;;;4.95;3.58;;;;;;;;;;5034682;28;20155;-69
2021/06/21 09:09:49;;;;;;;10.55;3.78;;;;;;;;;;5034751;28;20040;-64
2021/06/21 09:12:33;;;;;;;4.68;3.17;;;;;;;;;;5034779;28;20021;-67
2021/06/21 09:15:00;;;;;;;2.90;2.70;;;;;;;;;;5034681;28;20469;-68
2021/06/21 09:17:28;;;;;;;5.45;3.33;;;;;;;;;;5049702;28;20114;-67
2021/06/21 09:19:56;;;;;;;6.57;3.30;;;;;;;;;;5034611;28;20026;-69
2021/06/21 09:22:27;;;;;;;4.45;2.72;;;;;;;;;;5034363;28;20018;-68
2021/06/21 09:24:53;;;;;;;;;;;;;;;;;;5034629;28;20374;-70
2021/06/21 09:27:20;;;;;;;3.10;2.83;;;;;;;;;;5033176;28;19915;-72
2021/06/21 09:29:46;;;;;;;3.58;3.22;;;;;;;;;;5048685;28;20095;-72
2021/06/21 09:32:12;;;;;;;3.30;3.10;;;;;;;;;;5048847;28;20030;-69
2021/06/21 09:34:42;;;;;;;3.30;2.78;;;;;;;;;;5043485;28;20076;-68
2021/06/21 09:37:10;;;;;;;3.42;2.58;;;;;;;;;;5013147;28;20444;-69
2021/06/21 09:39:45;;;;;;;4.53;3.50;;;;;;;;;;5013163;28;20053;-67
2021/06/21 09:42:17;;;;;;;4.00;2.90;;;;;;;;;;5013133;28;20371;-66
2021/06/21 09:44:45;;;;;;;4.85;3.00;;;;;;;;;;5014378;28;20025;-67
2021/06/21 09:47:23;;;;;;;4.60;3.47;;;;;;;;;;5014205;28;20026;-68
2021/06/21 09:50:02;;;;;;;3.30;2.95;;;;;;;;;;5014374;28;20030;-67
2021/06/21 09:52:34;;;;;;;5.22;3.42;;;;;;;;;;5014209;28;20030;-68
2021/06/21 09:55:09;;;;;;;3.85;2.85;;;;;;;;;;5013853;28;20382;-67
2021/06/21 09:57:38;;;;;;;10.90;3.08;;;;;;;;;;5014021;28;20025;-68
2021/06/21 10:00:06;;;;;;;6.93;3.40;;;;;;;;;;5013732;28;20021;-69
2021/06/21 10:02:32;;;;;;;3.03;2.83;;;;;;;;;;5013630;28;20509;-68
2021/06/21 10:04:59;;;;;;;4.72;3.33;;;;;;;;;;5013962;28;20056;-69
2021/06/21 10:07:29;;;;;;;4.22;2.67;;;;;;;;;;5013498;28;20021;-71
2021/06/21 10:09:57;;;;;;;3.13;2.90;;;;;;;;;;5012594;28;20022;-69
2021/06/21 10:12:23;;;;;;;5.85;2.65;;;;;;;;;;5012490;28;20033;-70
2021/06/21 10:14:52;;;;;;;3.95;3.25;;;;;;;;;;5012609;28;20101;-69
2021/06/21 10:17:18;;;;;;;2.97;2.65;;;;;;;;;;5012528;28;20030;-70
2021/06/21 10:19:44;;;;;;;4.40;3.03;;;;;;;;;;5013519;28;20498;-73
2021/06/21 10:22:11;;;;;;;5.10;2.90;;;;;;;;;;5013575;28;20057;-71
2021/06/21 10:24:37;;;;;;;2.80;2.60;;;;;;;;;;5013700;28;20022;-70
2021/06/21 10:27:05;;;;;;;3.97;3.05;;;;;;;;;;5012351;28;20121;-69
2021/06/21 10:29:32;;;;;;;3.50;2.58;;;;;;;;;;5013590;28;20534;-68
2021/06/21 10:31:59;;;;;;;3.20;2.90;;;;;;;;;;5013572;28;20503;-66
2021/06/21 10:34:26;;;;;;;4.13;3.10;;;;;;;;;;5013323;28;20469;-68
2021/06/21 10:36:56;;;;;;;4.18;3.05;;;;;;;;;;5012019;28;20030;-69
2021/06/21 10:39:26;;;;;;;8.43;2.70;;;;;;;;;;5013627;28;20485;-69
2021/06/21 10:42:08;;;;;;;5.28;2.70;;;;;;;;;;5012135;28;20045;-68
2021/06/21 10:44:38;;;;;;;6.38;2.78;;;;;;;;;;5012043;28;20037;-68
2021/06/21 10:47:23;;;;;;;11.15;3.42;;;;;;;;;;5012648;28;20060;-70
2021/06/21 10:50:09;;;;;;;3.10;2.78;;;;;;;;;;5013317;28;20048;-66
2021/06/21 10:52:38;;;;;;;4.65;3.15;;;;;;;;;;5012537;28;20061;-68
2021/06/21 10:55:23;;;;;;;3.25;2.85;;;;;;;;;;5012017;28;20030;-66
2021/06/21 10:57:50;;;;;;;4.72;3.00;;;;;;;;;;5011963;28;20035;-67
2021/06/21 11:00:18;;;;;;;3.55;3.15;;;;;;;;;;5013129;28;20506;-65
2021/06/21 11:02:44;;;;;;;3.10;2.78;;;;;;;;;;5011912;28;20022;-66
2021/06/21 11:05:10;;;;;;;3.22;2.95;;;;;;;;;;5013036;28;20026;-64
2021/06/21 11:07:37;;;;;;;3.75;2.42;;;;;;;;;;5013021;28;20034;-66
2021/06/21 11:10:07;;;;;;;4.95;2.85;;;;;;;;;;5013239;28;20064;-64
2021/06/21 11:12:33;;;;;;;4.17;3.43;;;;;;;;;;5013195;28;20064;-64
2021/06/21 11:15:07;;;;;;;4.60;3.50;;;;;;;;;;5012831;28;20018;-64
2021/06/21 11:17:34;;;;;;;3.60;3.15;;;;;;;;;;5012858;28;20030;-66
2021/06/21 11:20:19;;;;;;;3.42;3.10;;;;;;;;;;5013105;28;20036;-66
2021/06/21 11:22:49;;;;;;;9.45;3.33;;;;;;;;;;5013033;28;20030;-65
2021/06/21 11:25:26;;;;;;;2.97;2.63;;;;;;;;;;5013129;28;20018;-65
2021/06/21 11:27:52;;;;;;;4.10;3.25;;;;;;;;;;5012956;28;20073;-65
2021/06/21 11:30:27;;;;;;;3.83;3.38;;;;;;;;;;5011843;28;20057;-65
2021/06/21 11:33:04;;;;;;;4.20;2.78;;;;;;;;;;5011774;28;20488;-65
2021/06/21 11:35:50;;;;;;;3.25;2.95;;;;;;;;;;5013006;28;20033;-64
2021/06/21 11:38:36;;;;;;;5.10;3.00;;;;;;;;;;5011551;28;20115;-64
2021/06/21 18:56:40;;;;;;;7.68;5.03;;;;;;;;;;5205866;23;20054;-66
2021/06/21 18:59:07;;;;;;;6.53;5.28;;;;;;;;;;5011820;28;20058;-66
2021/06/21 19:01:33;;;;;;;12.85;5.00;;;;;;;;;;5011576;28;20117;-70
2021/06/21 19:03:59;;;;;;;7.43;6.00;;;;;;;;;;5010721;28;20109;-66
2021/06/21 19:06:25;;;;;;;13.07;6.32;;;;;;;;;;5012738;28;20393;-65
2021/06/21 19:08:51;;;;;;;10.43;6.78;;;;;;;;;;5011864;28;20480;-67
2021/06/21 19:11:20;;;;;;;14.10;6.65;;;;;;;;;;5013244;28;20055;-68
2021/06/21 19:13:46;;;;;;;11.18;6.72;;;;;;;;;;5013151;28;20022;-67
2021/06/21 19:16:13;;;;;;;10.93;6.93;;;;;;;;;;5012883;28;20112;-67
2021/06/21 19:18:39;;;;;;;12.32;6.88;;;;;;;;;;5013178;28;20064;-69
2021/06/21 19:21:06;;;;;;;16.80;7.28;;;;;;;;;;5013081;28;20033;-67
2021/06/21 19:23:32;;;;;;;11.82;6.90;;;;;;;;;;5011744;28;20025;-65
2021/06/21 19:35:10;;;;;;;14.60;7.38;;;;;;;;;;5300347;23;20528;-69
2021/06/21 19:37:36;;;;;;;18.67;7.40;;;;;;;;;;5011044;28;20025;-64
2021/06/21 19:40:03;;;;;;;12.57;8.10;;;;;;;;;;5012872;28;20107;-66
2021/06/21 19:42:29;;;;;;;10.07;7.00;;;;;;;;;;5011314;28;20018;-66
2021/06/21 19:44:55;;;;;;;12.18;6.43;;;;;;;;;;5008654;28;20363;-68
2021/06/21 19:47:21;;;;;;;10.55;6.07;;;;;;;;;;5011388;28;20129;-66
2021/06/21 19:49:47;;;;;;;11.48;6.00;;;;;;;;;;5012862;28;20033;-70
2021/06/21 19:52:13;;;;;;;12.05;6.03;;;;;;;;;;5012307;28;20037;-68
2021/06/21 19:54:40;;;;;;;9.60;5.90;;;;;;;;;;5012832;28;20033;-67
2021/06/21 19:57:07;;;;;;;10.02;5.88;;;;;;;;;;5011490;28;20462;-66
2021/06/21 19:59:36;;;;;;;14.05;6.10;;;;;;;;;;5012528;28;20014;-66
2021/06/21 20:02:03;;;;;;;10.15;6.80;;;;;;;;;;5011473;28;20072;-68
2021/06/21 20:04:31;;;;;;;9.98;7.05;;;;;;;;;;5012683;28;20348;-67
2021/06/21 20:06:58;;;;;;;11.18;8.00;;;;;;;;;;5012274;28;20033;-67
2021/06/21 20:09:24;;;;;;;13.00;7.70;;;;;;;;;;5012663;28;20347;-66
2021/06/21 20:11:50;;;;;;;13.55;8.10;;;;;;;;;;5012168;28;20037;-68
2021/06/21 20:14:17;;;;;;;14.77;8.93;;;;;;;;;;5011993;28;20022;-71
2021/06/21 20:16:43;;;;;;;17.55;9.38;;;;;;;;;;5015547;28;20157;-67
2021/06/21 20:19:09;;;;;;;13.50;9.75;;;;;;;;;;5015772;28;20474;-68
2021/06/21 20:21:36;;;;;;;14.07;8.95;;;;;;;;;;5016091;28;20458;-69
2021/06/21 20:24:02;;;;;;;15.00;10.23;;;;;;;;;;5012611;28;20080;-68
2021/06/21 20:26:29;;;;;;;13.35;10.23;;;;;;;;;;5014431;28;20496;-68
2021/06/21 20:28:56;;;;;;;18.45;10.23;;;;;;;;;;5015914;28;20029;-65
2021/06/21 20:31:22;;;;;;;17.25;10.93;;;;;;;;;;5015925;28;20018;-67
2021/06/21 20:34:01;;;;;;;17.88;10.00;;;;;;;;;;5013886;28;20022;-68
2021/06/21 20:36:36;;;;;;;16.70;10.27;;;;;;;;;;5013958;28;20093;-66
2021/06/21 20:39:06;;;;;;;16.95;10.15;;;;;;;;;;5014390;28;20025;-65
2021/06/21 20:41:32;;;;;;;13.27;10.43;;;;;;;;;;5015494;28;20386;-68
2021/06/21 20:43:59;;;;;;;17.65;10.38;;;;;;;;;;5014253;28;20078;-66
2021/06/21 20:46:25;;;;;;;15.75;9.77;;;;;;;;;;5015551;28;20042;-66
2021/06/21 20:48:51;;;;;;;17.17;10.77;;;;;;;;;;5015254;28;20550;-65
2021/06/21 20:51:18;;;;;;;15.93;10.45;;;;;;;;;;5015635;28;20022;-65
2021/06/21 20:53:44;;;;;;;18.48;11.48;;;;;;;;;;5014390;28;20030;-65
2021/06/21 20:56:10;;;;;;;18.73;10.73;;;;;;;;;;5015141;28;20117;-66
2021/06/21 20:58:36;;;;;;;18.27;10.02;;;;;;;;;;5014131;28;20025;-65
2021/06/21 21:01:03;;;;;;;13.95;10.20;;;;;;;;;;5013764;28;20025;-65
2021/06/21 21:03:32;;;;;;;21.65;11.98;;;;;;;;;;5015286;28;20029;-67
2021/06/21 21:05:58;;;;;;;17.65;11.15;;;;;;;;;;5013914;28;20034;-69
2021/06/21 21:08:24;;;;;;;22.05;11.48;;;;;;;;;;5014913;28;20531;-66
2021/06/21 21:10:50;;;;;;;15.88;11.25;;;;;;;;;;5015228;28;20050;-67
2021/06/21 21:13:17;;;;;;;13.00;10.48;;;;;;;;;;5014099;28;20089;-64
2021/06/21 21:15:43;;;;;;;16.42;11.00;;;;;;;;;;5013760;28;20034;-67
2021/06/21 21:18:09;;;;;;;18.35;11.25;;;;;;;;;;5014903;28;20065;-65
2021/06/21 21:20:36;;;;;;;19.80;11.50;;;;;;;;;;5015209;28;20072;-66
2021/06/21 21:23:02;;;;;;;16.55;10.48;;;;;;;;;;5013280;28;20018;-67
2021/06/21 21:25:28;;;;;;;20.48;10.93;;;;;;;;;;5014760;28;20022;-63
2021/06/21 21:27:58;;;;;;;16.45;10.90;;;;;;;;;;5013829;28;20088;-68
2021/06/21 21:30:25;;;;;;;18.27;10.55;;;;;;;;;;5013496;28;20485;-66
2021/06/21 21:32:51;;;;;;;14.35;10.73;;;;;;;;;;5013753;28;20037;-69
2021/06/21 21:35:17;;;;;;;15.77;10.25;;;;;;;;;;5014224;28;20073;-66
2021/06/21 21:37:43;;;;;;;26.83;10.10;;;;;;;;;;5014622;28;20033;-67
2021/06/21 21:40:11;;;;;;;19.23;10.65;;;;;;;;;;5014667;28;20048;-63
2021/06/21 21:42:37;;;;;;;17.17;10.80;;;;;;;;;;5013207;28;20022;-67
2021/06/21 21:45:05;;;;;;;18.05;11.38;;;;;;;;;;5014514;28;20109;-67
2021/06/21 21:47:31;;;;;;;20.48;11.32;;;;;;;;;;5014364;28;20034;-64
2021/06/21 21:49:57;;;;;;;18.52;11.35;;;;;;;;;;5014349;28;20164;-65
2021/06/21 21:52:26;;;;;;;21.95;11.18;;;;;;;;;;5012165;28;20026;-67
2021/06/21 21:54:52;;;;;;;17.77;11.50;;;;;;;;;;5013910;28;20446;-67
2021/06/21 21:57:18;;;;;;;16.83;10.95;;;;;;;;;;5014100;28;20026;-67
2021/06/21 21:59:45;;;;;;;21.17;12.07;;;;;;;;;;5014242;28;20057;-66
2021/06/21 22:02:11;;;;;;;15.68;10.23;;;;;;;;;;5013927;28;20156;-65
2021/06/21 22:04:38;;;;;;;19.33;12.52;;;;;;;;;;5012922;28;20029;-67